EDT,Max TemperatureF,Mean TemperatureF,Min TemperatureF,Max Dew PointF,MeanDew PointF,Min DewpointF,Max Humidity, Mean Humidity, Min Humidity, Max Sea Level PressureIn, Mean Sea Level PressureIn, Min Sea Level PressureIn, Max VisibilityMiles, Mean VisibilityMiles, Min VisibilityMiles, Max Wind SpeedMPH, Mean Wind SpeedMPH, Max Gust SpeedMPH,PrecipitationIn, CloudCover, Events, WindDirDegrees
2012-10-1,62,58,55,63,57,54,100,97,88,29.88,29.75,29.63,10,8,2,14,3,21,0.00,6,Rain,100
2012-10-2,71,66,59,64,61,55,100,89,64,29.97,29.78,29.66,10,10,4,13,4,17,0.00,8,Rain,220
2012-10-3,71,61,51,55,52,50,100,80,50,30.19,30.10,29.96,10,10,10,10,5,,0.00,1,,207
2012-10-4,75,63,51,59,54,50,100,83,50,30.29,30.25,30.19,10,10,7,10,3,,0.00,1,,217
2012-10-5,,,,,,,,,,,,,,,,,,,,,,
2012-10-6,59,50,42,39,35,32,81,55,36,30.19,30.14,30.10,10,10,10,8,5,,0.00,3,,349
2012-10-7,53,47,41,41,37,32,87,70,44,30.20,30.16,30.11,10,10,7,9,4,,0.00,5,,332
2012-10-8,53,45,37,41,38,36,100,79,54,30.25,30.20,30.15,10,10,10,5,1,,0.00,3,,21
2012-10-9,60,46,32,45,39,32,100,79,42,30.20,30.12,30.03,10,8,0,8,2,,0.00,1,Fog,179
2012-10-10,59,48,35,46,40,32,93,73,39,30.27,30.12,30.02,10,10,10,14,6,23,0.00,3,,266
2012-10-11,64,47,30,39,34,28,100,69,30,30.32,30.27,30.21,10,10,10,8,2,,0.00,0,,229
2012-10-12,64,52,41,46,42,37,100,78,45,30.34,30.30,30.23,10,10,7,6,1,,0.00,4,Rain,58
2012-10-13,75,57,39,59,50,37,100,78,50,30.33,30.23,30.12,10,9,2,17,5,22,0.00,2,,200
2012-10-14,73,66,59,61,57,52,94,74,61,30.11,29.98,29.85,10,10,4,28,13,38,0.00,4,Rain,208
2012-10-15,62,52,41,57,45,39,100,71,45,30.00,29.95,29.89,10,10,10,15,8,23,0.00,3,,288
2012-10-16,66,50,35,43,40,36,100,71,40,30.04,29.96,29.87,10,10,7,8,2,,0.00,0,,187
2012-10-17,75,62,50,50,45,41,87,60,38,29.90,29.80,29.64,10,10,10,17,8,24,0.00,0,,196
2012-10-18,62,54,46,54,41,27,94,60,26,29.76,29.71,29.59,10,10,7,17,11,28,0.00,4,Rain,235
2012-10-19,59,50,42,41,37,36,81,62,44,29.81,29.71,29.65,10,10,10,21,8,30,0.00,6,Rain,233
2012-10-20,55,48,42,43,41,39,100,77,58,30.03,29.91,29.81,10,10,10,13,6,20,0.00,7,,253
2012-10-21,68,54,41,46,44,39,100,74,43,30.17,30.11,30.03,10,10,7,9,3,,0.00,1,,187
2012-10-22,71,62,53,54,48,45,82,64,41,30.21,30.16,30.12,10,10,7,13,6,18,0.00,5,Rain,201
2012-10-23,77,64,51,52,47,45,82,53,34,30.17,30.11,30.07,10,10,10,16,6,18,0.00,0,,212
2012-10-24,77,64,51,54,49,45,88,62,32,30.20,30.13,30.07,10,10,10,10,4,,0.00,1,,194
2012-10-25,78,63,48,54,50,45,87,65,41,30.12,30.06,30.01,10,10,10,14,4,22,0.00,0,,204
2012-10-26,60,52,44,54,50,45,100,84,68,30.13,30.08,30.03,10,10,5,15,7,18,0.00,5,,334
2012-10-27,46,44,42,45,43,37,100,93,76,30.11,30.07,30.04,10,9,3,17,9,22,0.00,8,Rain,13
2012-10-28,44,42,41,41,37,32,100,77,66,30.05,30.02,30.00,10,10,3,14,10,20,0.00,8,Rain,9
2012-10-29,44,38,33,32,30,19,87,68,37,30.04,29.97,29.79,10,10,10,22,11,33,0.00,7,,336
2012-10-30,42,38,35,36,34,30,100,84,61,29.78,29.69,29.64,10,9,4,22,15,32,0.00,8,Rain,301
2012-10-31,51,43,35,36,32,28,93,66,47,29.89,29.80,29.75,10,10,10,17,10,25,0.00,7,Rain,288